sensor_id;sensor_type;location;lat;lon;timestamp;P1;durP1;ratioP1;P2;durP2;ratioP2
68700;SDS011;55682;51.114;5.882;2024-03-08T00:00:23;17.19;;;17.02;;
68700;SDS011;55682;51.114;5.882;2024-03-08T00:02:48;15.08;;;14.99;;
68700;SDS011;55682;51.114;5.882;2024-03-08T00:05:16;18.04;;;17.92;;
68700;SDS011;55682;51.114;5.882;2024-03-08T00:07:43;17.48;;;17.42;;
68700;SDS011;55682;51.114;5.882;2024-03-08T00:10:10;16.54;;;16.49;;
68700;SDS011;55682;51.114;5.882;2024-03-08T00:12:38;16.78;;;16.62;;
68700;SDS011;55682;51.114;5.882;2024-03-08T00:15:08;16.30;;;16.18;;
68700;SDS011;55682;51.114;5.882;2024-03-08T00:17:36;15.80;;;15.75;;
68700;SDS011;55682;51.114;5.882;2024-03-08T00:20:02;17.10;;;16.96;;
68700;SDS011;55682;51.114;5.882;2024-03-08T00:22:33;15.59;;;15.52;;
68700;SDS011;55682;51.114;5.882;2024-03-08T00:25:00;16.56;;;16.22;;
68700;SDS011;55682;51.114;5.882;2024-03-08T00:27:25;17.26;;;17.01;;
68700;SDS011;55682;51.114;5.882;2024-03-08T00:29:51;17.38;;;17.21;;
68700;SDS011;55682;51.114;5.882;2024-03-08T00:32:17;16.76;;;16.71;;
68700;SDS011;55682;51.114;5.882;2024-03-08T00:34:43;17.53;;;17.45;;
68700;SDS011;55682;51.114;5.882;2024-03-08T00:37:08;17.15;;;17.12;;
68700;SDS011;55682;51.114;5.882;2024-03-08T00:39:34;16.16;;;16.08;;
68700;SDS011;55682;51.114;5.882;2024-03-08T00:41:59;17.14;;;17.12;;
68700;SDS011;55682;51.114;5.882;2024-03-08T00:44:25;17.84;;;17.78;;
68700;SDS011;55682;51.114;5.882;2024-03-08T00:46:51;17.39;;;17.33;;
68700;SDS011;55682;51.114;5.882;2024-03-08T00:49:17;18.42;;;18.31;;
68700;SDS011;55682;51.114;5.882;2024-03-08T00:51:42;19.25;;;19.07;;
68700;SDS011;55682;51.114;5.882;2024-03-08T00:54:08;19.80;;;19.59;;
68700;SDS011;55682;51.114;5.882;2024-03-08T00:56:34;19.07;;;19.03;;
68700;SDS011;55682;51.114;5.882;2024-03-08T00:59:01;19.38;;;19.34;;
68700;SDS011;55682;51.114;5.882;2024-03-08T01:01:27;17.70;;;17.59;;
68700;SDS011;55682;51.114;5.882;2024-03-08T01:03:54;18.48;;;18.27;;
68700;SDS011;55682;51.114;5.882;2024-03-08T01:06:19;17.80;;;17.68;;
68700;SDS011;55682;51.114;5.882;2024-03-08T01:08:45;17.99;;;17.86;;
68700;SDS011;55682;51.114;5.882;2024-03-08T01:11:12;19.36;;;19.03;;
68700;SDS011;55682;51.114;5.882;2024-03-08T01:13:39;18.63;;;18.61;;
68700;SDS011;55682;51.114;5.882;2024-03-08T01:16:05;19.28;;;19.11;;
68700;SDS011;55682;51.114;5.882;2024-03-08T01:18:31;18.70;;;18.63;;
68700;SDS011;55682;51.114;5.882;2024-03-08T01:20:57;20.06;;;19.69;;
68700;SDS011;55682;51.114;5.882;2024-03-08T01:23:22;19.79;;;19.66;;
68700;SDS011;55682;51.114;5.882;2024-03-08T01:25:49;18.41;;;18.34;;
68700;SDS011;55682;51.114;5.882;2024-03-08T01:28:22;18.60;;;18.56;;
68700;SDS011;55682;51.114;5.882;2024-03-08T01:30:51;20.91;;;20.75;;
68700;SDS011;55682;51.114;5.882;2024-03-08T01:33:24;18.56;;;18.33;;
68700;SDS011;55682;51.114;5.882;2024-03-08T01:35:51;19.52;;;19.36;;
68700;SDS011;55682;51.114;5.882;2024-03-08T01:38:18;19.17;;;19.13;;
68700;SDS011;55682;51.114;5.882;2024-03-08T01:40:44;19.28;;;19.19;;
68700;SDS011;55682;51.114;5.882;2024-03-08T01:43:19;19.18;;;18.84;;
68700;SDS011;55682;51.114;5.882;2024-03-08T01:45:47;18.27;;;18.03;;
68700;SDS011;55682;51.114;5.882;2024-03-08T01:48:14;19.12;;;18.97;;
68700;SDS011;55682;51.114;5.882;2024-03-08T01:50:42;19.96;;;19.86;;
68700;SDS011;55682;51.114;5.882;2024-03-08T01:53:08;18.97;;;18.91;;
68700;SDS011;55682;51.114;5.882;2024-03-08T01:55:37;20.41;;;20.23;;
68700;SDS011;55682;51.114;5.882;2024-03-08T01:58:07;19.69;;;19.53;;
68700;SDS011;55682;51.114;5.882;2024-03-08T02:00:35;19.68;;;19.45;;
68700;SDS011;55682;51.114;5.882;2024-03-08T02:03:05;19.24;;;19.10;;
68700;SDS011;55682;51.114;5.882;2024-03-08T02:05:31;19.57;;;19.34;;
68700;SDS011;55682;51.114;5.882;2024-03-08T02:07:57;18.33;;;18.29;;
68700;SDS011;55682;51.114;5.882;2024-03-08T02:10:23;19.06;;;18.95;;
68700;SDS011;55682;51.114;5.882;2024-03-08T02:12:49;17.43;;;17.33;;
68700;SDS011;55682;51.114;5.882;2024-03-08T02:15:15;20.17;;;20.04;;
68700;SDS011;55682;51.114;5.882;2024-03-08T02:17:40;20.02;;;19.88;;
68700;SDS011;55682;51.114;5.882;2024-03-08T02:20:06;20.11;;;19.90;;
68700;SDS011;55682;51.114;5.882;2024-03-08T02:22:34;20.36;;;20.25;;
68700;SDS011;55682;51.114;5.882;2024-03-08T02:25:01;19.74;;;19.35;;
68700;SDS011;55682;51.114;5.882;2024-03-08T02:27:28;20.44;;;20.06;;
68700;SDS011;55682;51.114;5.882;2024-03-08T02:29:55;19.42;;;19.28;;
68700;SDS011;55682;51.114;5.882;2024-03-08T02:32:22;17.77;;;17.63;;
68700;SDS011;55682;51.114;5.882;2024-03-08T02:34:48;18.69;;;18.47;;
68700;SDS011;55682;51.114;5.882;2024-03-08T02:37:15;18.63;;;18.50;;
68700;SDS011;55682;51.114;5.882;2024-03-08T02:39:41;18.79;;;18.68;;
68700;SDS011;55682;51.114;5.882;2024-03-08T02:42:07;18.33;;;18.00;;
68700;SDS011;55682;51.114;5.882;2024-03-08T02:44:32;19.97;;;19.61;;
68700;SDS011;55682;51.114;5.882;2024-03-08T02:46:59;18.66;;;18.45;;
68700;SDS011;55682;51.114;5.882;2024-03-08T02:49:25;17.51;;;17.45;;
68700;SDS011;55682;51.114;5.882;2024-03-08T02:51:52;18.87;;;18.81;;
68700;SDS011;55682;51.114;5.882;2024-03-08T02:54:18;19.09;;;18.96;;
68700;SDS011;55682;51.114;5.882;2024-03-08T02:56:44;20.08;;;20.00;;
68700;SDS011;55682;51.114;5.882;2024-03-08T02:59:12;18.52;;;18.36;;
68700;SDS011;55682;51.114;5.882;2024-03-08T03:01:38;18.87;;;18.80;;
68700;SDS011;55682;51.114;5.882;2024-03-08T03:04:04;18.42;;;18.24;;
68700;SDS011;55682;51.114;5.882;2024-03-08T03:06:30;19.51;;;19.30;;
68700;SDS011;55682;51.114;5.882;2024-03-08T03:08:57;19.90;;;19.65;;
68700;SDS011;55682;51.114;5.882;2024-03-08T03:11:23;18.77;;;18.57;;
68700;SDS011;55682;51.114;5.882;2024-03-08T03:13:48;18.04;;;17.89;;
68700;SDS011;55682;51.114;5.882;2024-03-08T03:16:21;19.94;;;19.72;;
68700;SDS011;55682;51.114;5.882;2024-03-08T03:18:47;19.35;;;18.85;;
68700;SDS011;55682;51.114;5.882;2024-03-08T03:21:13;20.18;;;19.92;;
68700;SDS011;55682;51.114;5.882;2024-03-08T03:23:39;21.18;;;20.87;;
68700;SDS011;55682;51.114;5.882;2024-03-08T03:26:05;18.81;;;18.52;;
68700;SDS011;55682;51.114;5.882;2024-03-08T03:28:34;18.60;;;18.35;;
68700;SDS011;55682;51.114;5.882;2024-03-08T03:30:59;18.85;;;18.56;;
68700;SDS011;55682;51.114;5.882;2024-03-08T03:33:26;20.04;;;19.73;;
68700;SDS011;55682;51.114;5.882;2024-03-08T03:35:52;18.67;;;18.52;;
68700;SDS011;55682;51.114;5.882;2024-03-08T03:38:18;20.10;;;19.75;;
68700;SDS011;55682;51.114;5.882;2024-03-08T03:40:45;19.02;;;18.87;;
68700;SDS011;55682;51.114;5.882;2024-03-08T03:43:11;18.35;;;18.24;;
68700;SDS011;55682;51.114;5.882;2024-03-08T03:45:37;19.99;;;19.79;;
68700;SDS011;55682;51.114;5.882;2024-03-08T03:48:06;19.15;;;18.92;;
68700;SDS011;55682;51.114;5.882;2024-03-08T03:50:36;19.79;;;19.64;;
68700;SDS011;55682;51.114;5.882;2024-03-08T03:53:02;21.28;;;21.12;;
68700;SDS011;55682;51.114;5.882;2024-03-08T03:55:33;19.86;;;19.62;;
68700;SDS011;55682;51.114;5.882;2024-03-08T03:57:59;20.81;;;20.36;;
68700;SDS011;55682;51.114;5.882;2024-03-08T04:00:26;21.02;;;20.70;;
68700;SDS011;55682;51.114;5.882;2024-03-08T04:02:52;18.98;;;18.72;;
68700;SDS011;55682;51.114;5.882;2024-03-08T04:05:18;20.03;;;19.78;;
68700;SDS011;55682;51.114;5.882;2024-03-08T04:07:44;19.97;;;19.69;;
68700;SDS011;55682;51.114;5.882;2024-03-08T04:10:10;20.77;;;20.61;;
68700;SDS011;55682;51.114;5.882;2024-03-08T04:12:37;19.37;;;19.15;;
68700;SDS011;55682;51.114;5.882;2024-03-08T04:15:03;20.86;;;20.62;;
68700;SDS011;55682;51.114;5.882;2024-03-08T04:17:32;20.51;;;20.11;;
68700;SDS011;55682;51.114;5.882;2024-03-08T04:20:02;19.91;;;19.76;;
68700;SDS011;55682;51.114;5.882;2024-03-08T04:22:34;20.90;;;20.55;;
68700;SDS011;55682;51.114;5.882;2024-03-08T04:25:01;19.65;;;19.29;;
68700;SDS011;55682;51.114;5.882;2024-03-08T04:27:27;20.00;;;19.77;;
68700;SDS011;55682;51.114;5.882;2024-03-08T04:29:53;18.60;;;18.57;;
68700;SDS011;55682;51.114;5.882;2024-03-08T04:32:18;19.30;;;19.13;;
68700;SDS011;55682;51.114;5.882;2024-03-08T04:34:44;21.28;;;21.00;;
68700;SDS011;55682;51.114;5.882;2024-03-08T04:37:10;20.06;;;19.78;;
68700;SDS011;55682;51.114;5.882;2024-03-08T04:39:38;20.69;;;20.48;;
68700;SDS011;55682;51.114;5.882;2024-03-08T04:42:04;19.72;;;19.63;;
68700;SDS011;55682;51.114;5.882;2024-03-08T04:44:35;19.67;;;19.45;;
68700;SDS011;55682;51.114;5.882;2024-03-08T04:47:03;19.90;;;19.54;;
68700;SDS011;55682;51.114;5.882;2024-03-08T04:49:31;20.36;;;19.99;;
68700;SDS011;55682;51.114;5.882;2024-03-08T04:52:00;19.65;;;19.33;;
68700;SDS011;55682;51.114;5.882;2024-03-08T04:54:28;19.30;;;19.13;;
68700;SDS011;55682;51.114;5.882;2024-03-08T04:56:54;19.65;;;19.41;;
68700;SDS011;55682;51.114;5.882;2024-03-08T04:59:19;18.89;;;18.55;;
68700;SDS011;55682;51.114;5.882;2024-03-08T05:04:56;18.90;;;18.73;;
68700;SDS011;55682;51.114;5.882;2024-03-08T05:07:22;19.49;;;18.95;;
68700;SDS011;55682;51.114;5.882;2024-03-08T05:09:47;19.89;;;19.56;;
68700;SDS011;55682;51.114;5.882;2024-03-08T05:12:17;20.27;;;19.99;;
68700;SDS011;55682;51.114;5.882;2024-03-08T05:14:45;19.99;;;19.70;;
68700;SDS011;55682;51.114;5.882;2024-03-08T05:17:14;19.91;;;19.74;;
68700;SDS011;55682;51.114;5.882;2024-03-08T05:19:40;19.97;;;19.68;;
68700;SDS011;55682;51.114;5.882;2024-03-08T05:22:06;21.54;;;21.19;;
68700;SDS011;55682;51.114;5.882;2024-03-08T05:24:32;19.84;;;19.54;;
68700;SDS011;55682;51.114;5.882;2024-03-08T05:26:58;18.38;;;18.19;;
68700;SDS011;55682;51.114;5.882;2024-03-08T05:29:25;19.92;;;19.66;;
68700;SDS011;55682;51.114;5.882;2024-03-08T05:31:51;18.60;;;18.33;;
68700;SDS011;55682;51.114;5.882;2024-03-08T05:34:18;18.86;;;18.45;;
68700;SDS011;55682;51.114;5.882;2024-03-08T05:36:50;19.27;;;19.08;;
68700;SDS011;55682;51.114;5.882;2024-03-08T05:39:16;17.88;;;17.67;;
68700;SDS011;55682;51.114;5.882;2024-03-08T05:41:43;18.22;;;18.02;;
68700;SDS011;55682;51.114;5.882;2024-03-08T05:44:10;18.41;;;18.09;;
68700;SDS011;55682;51.114;5.882;2024-03-08T05:46:36;19.37;;;19.02;;
68700;SDS011;55682;51.114;5.882;2024-03-08T05:49:03;17.81;;;17.59;;
68700;SDS011;55682;51.114;5.882;2024-03-08T05:51:34;18.64;;;18.24;;
68700;SDS011;55682;51.114;5.882;2024-03-08T05:54:05;18.97;;;18.52;;
68700;SDS011;55682;51.114;5.882;2024-03-08T05:56:35;18.94;;;18.54;;
68700;SDS011;55682;51.114;5.882;2024-03-08T05:59:01;20.79;;;20.53;;
68700;SDS011;55682;51.114;5.882;2024-03-08T06:01:27;18.48;;;18.31;;
68700;SDS011;55682;51.114;5.882;2024-03-08T06:03:54;19.11;;;18.77;;
68700;SDS011;55682;51.114;5.882;2024-03-08T06:06:22;17.82;;;17.43;;
68700;SDS011;55682;51.114;5.882;2024-03-08T06:08:49;17.86;;;17.60;;
68700;SDS011;55682;51.114;5.882;2024-03-08T06:11:15;18.10;;;17.84;;
68700;SDS011;55682;51.114;5.882;2024-03-08T06:13:43;18.75;;;18.53;;
68700;SDS011;55682;51.114;5.882;2024-03-08T06:16:09;19.41;;;19.14;;
68700;SDS011;55682;51.114;5.882;2024-03-08T06:18:35;18.97;;;18.77;;
68700;SDS011;55682;51.114;5.882;2024-03-08T06:21:06;19.37;;;19.18;;
68700;SDS011;55682;51.114;5.882;2024-03-08T06:23:34;18.70;;;18.44;;
68700;SDS011;55682;51.114;5.882;2024-03-08T06:26:06;19.40;;;19.18;;
68700;SDS011;55682;51.114;5.882;2024-03-08T06:28:32;19.34;;;19.00;;
68700;SDS011;55682;51.114;5.882;2024-03-08T06:31:00;18.90;;;18.42;;
68700;SDS011;55682;51.114;5.882;2024-03-08T06:33:26;21.34;;;20.74;;
68700;SDS011;55682;51.114;5.882;2024-03-08T06:35:53;19.84;;;19.42;;
68700;SDS011;55682;51.114;5.882;2024-03-08T06:38:25;20.77;;;20.32;;
68700;SDS011;55682;51.114;5.882;2024-03-08T06:40:51;19.40;;;19.14;;
68700;SDS011;55682;51.114;5.882;2024-03-08T06:43:18;20.47;;;20.05;;
68700;SDS011;55682;51.114;5.882;2024-03-08T06:45:46;21.19;;;20.80;;
68700;SDS011;55682;51.114;5.882;2024-03-08T06:48:16;21.12;;;20.66;;
68700;SDS011;55682;51.114;5.882;2024-03-08T06:50:45;21.12;;;20.80;;
68700;SDS011;55682;51.114;5.882;2024-03-08T06:53:12;20.17;;;19.88;;
68700;SDS011;55682;51.114;5.882;2024-03-08T06:55:39;20.46;;;20.06;;
68700;SDS011;55682;51.114;5.882;2024-03-08T06:58:05;20.93;;;20.47;;
68700;SDS011;55682;51.114;5.882;2024-03-08T07:00:32;20.87;;;20.44;;
68700;SDS011;55682;51.114;5.882;2024-03-08T07:02:58;18.56;;;18.37;;
68700;SDS011;55682;51.114;5.882;2024-03-08T07:05:26;20.01;;;19.92;;
68700;SDS011;55682;51.114;5.882;2024-03-08T07:07:52;19.72;;;19.33;;
68700;SDS011;55682;51.114;5.882;2024-03-08T07:10:20;17.89;;;17.66;;
68700;SDS011;55682;51.114;5.882;2024-03-08T07:12:49;18.63;;;18.41;;
68700;SDS011;55682;51.114;5.882;2024-03-08T07:15:15;17.86;;;17.61;;
68700;SDS011;55682;51.114;5.882;2024-03-08T07:17:41;17.21;;;16.96;;
68700;SDS011;55682;51.114;5.882;2024-03-08T07:20:09;18.60;;;18.35;;
68700;SDS011;55682;51.114;5.882;2024-03-08T07:22:37;17.76;;;17.64;;
68700;SDS011;55682;51.114;5.882;2024-03-08T07:25:07;18.16;;;17.89;;
68700;SDS011;55682;51.114;5.882;2024-03-08T07:27:49;16.79;;;16.46;;
68700;SDS011;55682;51.114;5.882;2024-03-08T07:30:20;17.86;;;17.44;;
68700;SDS011;55682;51.114;5.882;2024-03-08T07:33:10;18.22;;;18.08;;
68700;SDS011;55682;51.114;5.882;2024-03-08T07:35:39;16.74;;;16.48;;
68700;SDS011;55682;51.114;5.882;2024-03-08T07:38:08;16.30;;;16.09;;
68700;SDS011;55682;51.114;5.882;2024-03-08T07:40:35;17.08;;;16.87;;
68700;SDS011;55682;51.114;5.882;2024-03-08T07:43:06;17.53;;;17.39;;
68700;SDS011;55682;51.114;5.882;2024-03-08T07:45:32;17.41;;;17.23;;
68700;SDS011;55682;51.114;5.882;2024-03-08T07:47:57;17.54;;;17.30;;
68700;SDS011;55682;51.114;5.882;2024-03-08T07:50:23;16.19;;;16.07;;
68700;SDS011;55682;51.114;5.882;2024-03-08T07:52:49;15.24;;;15.16;;
68700;SDS011;55682;51.114;5.882;2024-03-08T07:55:15;14.87;;;14.73;;
68700;SDS011;55682;51.114;5.882;2024-03-08T07:57:40;15.48;;;15.26;;
68700;SDS011;55682;51.114;5.882;2024-03-08T08:00:08;15.09;;;14.99;;
68700;SDS011;55682;51.114;5.882;2024-03-08T08:02:36;17.00;;;16.85;;
68700;SDS011;55682;51.114;5.882;2024-03-08T08:05:02;16.46;;;16.35;;
68700;SDS011;55682;51.114;5.882;2024-03-08T08:07:28;16.70;;;16.52;;
68700;SDS011;55682;51.114;5.882;2024-03-08T08:09:54;18.22;;;18.00;;
68700;SDS011;55682;51.114;5.882;2024-03-08T08:12:20;16.61;;;16.50;;
68700;SDS011;55682;51.114;5.882;2024-03-08T08:14:46;14.92;;;14.84;;
68700;SDS011;55682;51.114;5.882;2024-03-08T08:17:12;14.75;;;14.69;;
68700;SDS011;55682;51.114;5.882;2024-03-08T08:19:37;14.51;;;14.41;;
68700;SDS011;55682;51.114;5.882;2024-03-08T08:22:05;14.93;;;14.86;;
68700;SDS011;55682;51.114;5.882;2024-03-08T08:24:34;15.94;;;15.70;;
68700;SDS011;55682;51.114;5.882;2024-03-08T08:27:02;14.70;;;14.60;;
68700;SDS011;55682;51.114;5.882;2024-03-08T08:29:28;15.27;;;15.13;;
68700;SDS011;55682;51.114;5.882;2024-03-08T08:31:53;14.85;;;14.79;;
68700;SDS011;55682;51.114;5.882;2024-03-08T08:34:19;17.40;;;17.24;;
68700;SDS011;55682;51.114;5.882;2024-03-08T08:36:49;14.79;;;14.53;;
68700;SDS011;55682;51.114;5.882;2024-03-08T08:39:14;15.51;;;15.33;;
68700;SDS011;55682;51.114;5.882;2024-03-08T08:41:42;13.66;;;13.54;;
68700;SDS011;55682;51.114;5.882;2024-03-08T08:44:08;14.15;;;14.10;;
68700;SDS011;55682;51.114;5.882;2024-03-08T08:46:37;14.81;;;14.66;;
68700;SDS011;55682;51.114;5.882;2024-03-08T08:49:04;16.15;;;16.06;;
68700;SDS011;55682;51.114;5.882;2024-03-08T08:51:31;15.66;;;15.62;;
68700;SDS011;55682;51.114;5.882;2024-03-08T08:53:59;15.23;;;15.21;;
68700;SDS011;55682;51.114;5.882;2024-03-08T08:56:25;13.81;;;13.79;;
68700;SDS011;55682;51.114;5.882;2024-03-08T08:58:51;16.33;;;16.26;;
68700;SDS011;55682;51.114;5.882;2024-03-08T09:01:18;15.76;;;15.60;;
68700;SDS011;55682;51.114;5.882;2024-03-08T09:03:45;15.18;;;15.16;;
68700;SDS011;55682;51.114;5.882;2024-03-08T09:06:12;16.54;;;16.52;;
68700;SDS011;55682;51.114;5.882;2024-03-08T09:08:38;15.14;;;15.14;;
68700;SDS011;55682;51.114;5.882;2024-03-08T09:11:04;16.09;;;15.92;;
68700;SDS011;55682;51.114;5.882;2024-03-08T09:13:31;13.01;;;12.99;;
68700;SDS011;55682;51.114;5.882;2024-03-08T09:15:59;15.15;;;15.09;;
68700;SDS011;55682;51.114;5.882;2024-03-08T09:18:25;14.90;;;14.82;;
68700;SDS011;55682;51.114;5.882;2024-03-08T09:20:51;14.59;;;14.51;;
68700;SDS011;55682;51.114;5.882;2024-03-08T09:23:22;15.33;;;15.21;;
68700;SDS011;55682;51.114;5.882;2024-03-08T09:25:47;14.78;;;14.63;;
68700;SDS011;55682;51.114;5.882;2024-03-08T09:28:14;15.11;;;15.02;;
68700;SDS011;55682;51.114;5.882;2024-03-08T09:30:41;15.59;;;15.42;;
68700;SDS011;55682;51.114;5.882;2024-03-08T09:33:07;13.70;;;13.56;;
68700;SDS011;55682;51.114;5.882;2024-03-08T09:35:32;13.88;;;13.76;;
68700;SDS011;55682;51.114;5.882;2024-03-08T09:37:58;13.26;;;13.21;;
68700;SDS011;55682;51.114;5.882;2024-03-08T09:40:24;13.31;;;13.16;;
68700;SDS011;55682;51.114;5.882;2024-03-08T09:42:51;14.06;;;13.86;;
68700;SDS011;55682;51.114;5.882;2024-03-08T09:45:17;13.61;;;13.48;;
68700;SDS011;55682;51.114;5.882;2024-03-08T09:47:49;13.63;;;13.45;;
68700;SDS011;55682;51.114;5.882;2024-03-08T09:50:14;12.57;;;12.44;;
68700;SDS011;55682;51.114;5.882;2024-03-08T09:52:43;13.30;;;13.08;;
68700;SDS011;55682;51.114;5.882;2024-03-08T09:55:13;12.80;;;12.71;;
68700;SDS011;55682;51.114;5.882;2024-03-08T09:57:42;15.71;;;15.63;;
68700;SDS011;55682;51.114;5.882;2024-03-08T10:00:27;12.96;;;12.93;;
68700;SDS011;55682;51.114;5.882;2024-03-08T10:02:53;13.89;;;13.83;;
68700;SDS011;55682;51.114;5.882;2024-03-08T10:05:19;14.36;;;14.32;;
68700;SDS011;55682;51.114;5.882;2024-03-08T10:07:47;13.04;;;12.97;;
68700;SDS011;55682;51.114;5.882;2024-03-08T10:10:13;13.58;;;13.55;;
68700;SDS011;55682;51.114;5.882;2024-03-08T10:12:38;12.33;;;12.30;;
68700;SDS011;55682;51.114;5.882;2024-03-08T10:15:07;14.53;;;14.50;;
68700;SDS011;55682;51.114;5.882;2024-03-08T10:17:34;14.37;;;14.33;;
68700;SDS011;55682;51.114;5.882;2024-03-08T10:20:00;14.18;;;13.89;;
68700;SDS011;55682;51.114;5.882;2024-03-08T10:22:26;14.51;;;14.41;;
68700;SDS011;55682;51.114;5.882;2024-03-08T10:24:54;13.36;;;13.23;;
68700;SDS011;55682;51.114;5.882;2024-03-08T10:27:20;14.81;;;14.68;;
68700;SDS011;55682;51.114;5.882;2024-03-08T10:29:49;14.99;;;14.94;;
68700;SDS011;55682;51.114;5.882;2024-03-08T10:32:17;12.88;;;12.82;;
68700;SDS011;55682;51.114;5.882;2024-03-08T10:34:42;13.02;;;12.99;;
68700;SDS011;55682;51.114;5.882;2024-03-08T10:37:12;13.15;;;13.14;;
68700;SDS011;55682;51.114;5.882;2024-03-08T10:39:43;13.35;;;13.32;;
68700;SDS011;55682;51.114;5.882;2024-03-08T10:42:28;12.25;;;12.22;;
68700;SDS011;55682;51.114;5.882;2024-03-08T10:50:57;13.34;;;13.28;;
68700;SDS011;55682;51.114;5.882;2024-03-08T10:53:27;13.64;;;13.63;;
68700;SDS011;55682;51.114;5.882;2024-03-08T10:55:56;12.77;;;12.65;;
68700;SDS011;55682;51.114;5.882;2024-03-08T10:58:24;12.86;;;12.76;;
68700;SDS011;55682;51.114;5.882;2024-03-08T11:00:55;11.92;;;11.82;;
68700;SDS011;55682;51.114;5.882;2024-03-08T11:06:08;11.74;;;11.73;;
68700;SDS011;55682;51.114;5.882;2024-03-08T11:08:40;12.64;;;12.64;;
68700;SDS011;55682;51.114;5.882;2024-03-08T11:11:09;12.68;;;12.63;;
68700;SDS011;55682;51.114;5.882;2024-03-08T11:13:55;11.42;;;11.41;;
68700;SDS011;55682;51.114;5.882;2024-03-08T11:18:50;13.25;;;13.24;;
68700;SDS011;55682;51.114;5.882;2024-03-08T11:21:18;11.65;;;11.57;;
68700;SDS011;55682;51.114;5.882;2024-03-08T11:23:58;12.23;;;12.16;;
68700;SDS011;55682;51.114;5.882;2024-03-08T11:26:44;12.22;;;12.13;;
68700;SDS011;55682;51.114;5.882;2024-03-08T11:31:52;11.10;;;11.03;;
68700;SDS011;55682;51.114;5.882;2024-03-08T11:34:47;11.00;;;10.95;;
68700;SDS011;55682;51.114;5.882;2024-03-08T11:37:17;12.28;;;12.28;;
68700;SDS011;55682;51.114;5.882;2024-03-08T11:39:46;12.13;;;12.12;;
68700;SDS011;55682;51.114;5.882;2024-03-08T11:42:17;12.57;;;12.57;;
68700;SDS011;55682;51.114;5.882;2024-03-08T11:44:45;11.27;;;11.23;;
68700;SDS011;55682;51.114;5.882;2024-03-08T11:47:11;11.78;;;11.76;;
68700;SDS011;55682;51.114;5.882;2024-03-08T11:49:37;12.05;;;12.04;;
68700;SDS011;55682;51.114;5.882;2024-03-08T11:52:04;11.90;;;11.84;;
68700;SDS011;55682;51.114;5.882;2024-03-08T11:54:30;10.86;;;10.82;;
68700;SDS011;55682;51.114;5.882;2024-03-08T11:56:56;10.66;;;10.63;;
68700;SDS011;55682;51.114;5.882;2024-03-08T11:59:28;10.93;;;10.88;;
68700;SDS011;55682;51.114;5.882;2024-03-08T12:02:04;9.64;;;9.58;;
68700;SDS011;55682;51.114;5.882;2024-03-08T12:04:31;9.73;;;9.72;;
68700;SDS011;55682;51.114;5.882;2024-03-08T12:07:01;9.94;;;9.90;;
68700;SDS011;55682;51.114;5.882;2024-03-08T12:09:34;9.04;;;9.03;;
68700;SDS011;55682;51.114;5.882;2024-03-08T12:12:01;10.52;;;10.51;;
68700;SDS011;55682;51.114;5.882;2024-03-08T12:14:32;11.29;;;11.29;;
68700;SDS011;55682;51.114;5.882;2024-03-08T12:16:58;9.57;;;9.57;;
68700;SDS011;55682;51.114;5.882;2024-03-08T12:19:27;10.52;;;10.52;;
68700;SDS011;55682;51.114;5.882;2024-03-08T12:21:54;10.51;;;10.51;;
68700;SDS011;55682;51.114;5.882;2024-03-08T12:24:20;11.34;;;11.32;;
68700;SDS011;55682;51.114;5.882;2024-03-08T12:26:47;9.61;;;9.61;;
68700;SDS011;55682;51.114;5.882;2024-03-08T12:29:14;10.36;;;10.32;;
68700;SDS011;55682;51.114;5.882;2024-03-08T12:31:51;11.00;;;10.99;;
68700;SDS011;55682;51.114;5.882;2024-03-08T12:34:26;11.26;;;11.23;;
68700;SDS011;55682;51.114;5.882;2024-03-08T12:36:53;11.15;;;10.89;;
68700;SDS011;55682;51.114;5.882;2024-03-08T12:39:21;11.38;;;11.36;;
68700;SDS011;55682;51.114;5.882;2024-03-08T12:41:48;10.05;;;10.04;;
68700;SDS011;55682;51.114;5.882;2024-03-08T12:44:17;10.31;;;10.31;;
68700;SDS011;55682;51.114;5.882;2024-03-08T12:46:47;10.00;;;9.99;;
68700;SDS011;55682;51.114;5.882;2024-03-08T12:49:16;8.48;;;8.48;;
68700;SDS011;55682;51.114;5.882;2024-03-08T12:51:47;8.97;;;8.96;;
68700;SDS011;55682;51.114;5.882;2024-03-08T12:54:14;10.96;;;10.91;;
68700;SDS011;55682;51.114;5.882;2024-03-08T12:56:40;8.63;;;8.63;;
68700;SDS011;55682;51.114;5.882;2024-03-08T12:59:06;8.32;;;8.32;;
68700;SDS011;55682;51.114;5.882;2024-03-08T13:01:33;9.82;;;9.81;;
68700;SDS011;55682;51.114;5.882;2024-03-08T13:04:02;10.12;;;10.06;;
68700;SDS011;55682;51.114;5.882;2024-03-08T13:06:29;8.25;;;8.25;;
68700;SDS011;55682;51.114;5.882;2024-03-08T13:08:56;10.67;;;10.58;;
68700;SDS011;55682;51.114;5.882;2024-03-08T13:11:23;11.34;;;11.24;;
68700;SDS011;55682;51.114;5.882;2024-03-08T13:13:50;10.67;;;10.61;;
68700;SDS011;55682;51.114;5.882;2024-03-08T13:16:16;9.95;;;9.92;;
68700;SDS011;55682;51.114;5.882;2024-03-08T13:18:44;9.74;;;9.62;;
68700;SDS011;55682;51.114;5.882;2024-03-08T13:21:10;10.51;;;10.37;;
68700;SDS011;55682;51.114;5.882;2024-03-08T13:23:39;11.92;;;11.72;;
68700;SDS011;55682;51.114;5.882;2024-03-08T13:26:06;11.31;;;11.14;;
68700;SDS011;55682;51.114;5.882;2024-03-08T13:28:33;11.23;;;11.07;;
68700;SDS011;55682;51.114;5.882;2024-03-08T13:31:03;10.89;;;10.85;;
68700;SDS011;55682;51.114;5.882;2024-03-08T13:33:35;11.18;;;11.01;;
68700;SDS011;55682;51.114;5.882;2024-03-08T13:36:20;10.20;;;10.15;;
68700;SDS011;55682;51.114;5.882;2024-03-08T13:38:46;9.38;;;9.37;;
68700;SDS011;55682;51.114;5.882;2024-03-08T13:41:14;10.00;;;9.98;;
68700;SDS011;55682;51.114;5.882;2024-03-08T13:43:42;9.85;;;9.78;;
68700;SDS011;55682;51.114;5.882;2024-03-08T13:46:12;12.02;;;11.88;;
68700;SDS011;55682;51.114;5.882;2024-03-08T13:48:38;10.63;;;10.59;;
68700;SDS011;55682;51.114;5.882;2024-03-08T13:51:07;11.56;;;11.54;;
68700;SDS011;55682;51.114;5.882;2024-03-08T13:53:35;10.79;;;10.71;;
68700;SDS011;55682;51.114;5.882;2024-03-08T13:56:01;11.87;;;11.78;;
68700;SDS011;55682;51.114;5.882;2024-03-08T13:58:28;11.50;;;11.32;;
68700;SDS011;55682;51.114;5.882;2024-03-08T14:00:56;12.64;;;12.53;;
68700;SDS011;55682;51.114;5.882;2024-03-08T14:03:22;11.31;;;11.25;;
68700;SDS011;55682;51.114;5.882;2024-03-08T14:05:51;10.23;;;10.15;;
68700;SDS011;55682;51.114;5.882;2024-03-08T14:08:17;10.23;;;10.11;;
68700;SDS011;55682;51.114;5.882;2024-03-08T14:10:45;9.49;;;9.39;;
68700;SDS011;55682;51.114;5.882;2024-03-08T14:13:15;10.34;;;10.27;;
68700;SDS011;55682;51.114;5.882;2024-03-08T14:15:44;10.51;;;10.44;;
68700;SDS011;55682;51.114;5.882;2024-03-08T14:18:11;10.48;;;10.46;;
68700;SDS011;55682;51.114;5.882;2024-03-08T14:20:38;10.36;;;10.32;;
68700;SDS011;55682;51.114;5.882;2024-03-08T14:23:04;11.63;;;11.58;;
68700;SDS011;55682;51.114;5.882;2024-03-08T14:25:33;12.83;;;12.77;;
68700;SDS011;55682;51.114;5.882;2024-03-08T14:27:59;11.95;;;11.93;;
68700;SDS011;55682;51.114;5.882;2024-03-08T14:30:32;10.20;;;10.19;;
68700;SDS011;55682;51.114;5.882;2024-03-08T14:33:03;10.92;;;10.81;;
68700;SDS011;55682;51.114;5.882;2024-03-08T14:35:31;9.98;;;9.91;;
68700;SDS011;55682;51.114;5.882;2024-03-08T14:37:57;10.44;;;10.35;;
68700;SDS011;55682;51.114;5.882;2024-03-08T14:40:26;9.78;;;9.70;;
68700;SDS011;55682;51.114;5.882;2024-03-08T14:42:52;9.58;;;9.48;;